createdAt,value
2023-03-21T00:00:22.744Z,61.27
2023-03-21T00:00:56.019Z,61.52
2023-03-21T00:01:31.233Z,61.34
2023-03-21T00:02:06.032Z,61.20
2023-03-21T00:02:38.172Z,61.39
2023-03-21T00:03:13.644Z,61.50
2023-03-21T00:03:46.948Z,61.44
2023-03-21T00:04:19.092Z,61.46
2023-03-21T00:04:56.673Z,61.38
2023-03-21T00:05:30.919Z,61.70
2023-03-21T00:06:06.969Z,61.54
2023-03-21T00:06:41.752Z,61.49
2023-03-21T00:07:13.833Z,61.71
2023-03-21T00:07:45.921Z,61.49
2023-03-21T00:08:21.409Z,61.53
2023-03-21T00:08:53.645Z,61.84
2023-03-21T00:09:26.169Z,61.47
2023-03-21T00:10:12.398Z,61.76
2023-03-21T00:10:47.901Z,61.85
2023-03-21T00:11:20.033Z,62.11
2023-03-21T00:11:54.736Z,62.18
2023-03-21T00:12:26.937Z,62.07
2023-03-21T00:12:59.063Z,61.89
2023-03-21T00:13:32.803Z,61.89
2023-03-21T00:14:09.155Z,61.99
2023-03-21T00:14:41.766Z,61.80
2023-03-21T00:15:14.060Z,62.30
2023-03-21T00:16:19.298Z,62.01
2023-03-21T00:16:50.531Z,62.03
2023-03-21T00:17:32.609Z,62.44
2023-03-21T00:18:11.438Z,62.22
2023-03-21T00:18:46.656Z,62.36
2023-03-21T00:19:22.122Z,62.03
2023-03-21T00:19:54.506Z,62.14
2023-03-21T00:20:26.862Z,62.15
2023-03-21T00:21:35.315Z,61.97
2023-03-21T00:22:06.922Z,62.06
2023-03-21T00:22:42.470Z,62.07
2023-03-21T00:23:14.578Z,61.83
2023-03-21T00:23:47.771Z,62.43
2023-03-21T00:24:23.029Z,62.17
2023-03-21T00:24:55.603Z,61.94
2023-03-21T00:25:28.873Z,61.97
2023-03-21T00:26:01.534Z,62.26
2023-03-21T00:26:38.365Z,62.40
2023-03-21T00:27:39.371Z,62.10
2023-03-21T00:28:08.544Z,62.54
2023-03-21T00:28:42.629Z,62.32
2023-03-21T00:29:20.614Z,62.39
2023-03-21T00:29:52.694Z,62.56
2023-03-21T00:30:27.681Z,62.57
2023-03-21T00:31:18.095Z,62.60
2023-03-21T00:31:52.821Z,62.36
2023-03-21T00:32:28.552Z,62.66
2023-03-21T00:33:05.981Z,62.63
2023-03-21T00:33:47.533Z,62.36
2023-03-21T00:34:26.813Z,62.18
2023-03-21T00:35:45.391Z,62.42
2023-03-21T00:36:05.894Z,62.28
2023-03-21T00:36:39.077Z,62.32
2023-03-21T00:37:14.925Z,62.20
2023-03-21T00:37:50.664Z,62.53
2023-03-21T00:38:24.042Z,62.17
2023-03-21T00:38:56.416Z,62.26
2023-03-21T00:39:32.209Z,62.10
2023-03-21T00:40:16.206Z,62.23
2023-03-21T00:40:56.879Z,62.47
2023-03-21T00:41:43.131Z,62.59
2023-03-21T00:42:15.604Z,62.52
2023-03-21T00:42:47.988Z,62.24
2023-03-21T00:43:23.468Z,62.22
2023-03-21T00:43:55.921Z,62.59
2023-03-21T00:44:28.286Z,62.21
2023-03-21T00:45:03.025Z,62.45
2023-03-21T00:45:35.704Z,62.14
2023-03-21T00:46:08.052Z,62.11
2023-03-21T00:46:51.644Z,62.07
2023-03-21T00:47:35.375Z,62.41
2023-03-21T00:48:10.688Z,62.28
2023-03-21T00:48:42.914Z,62.50
2023-03-21T00:49:15.501Z,62.51
2023-03-21T00:49:50.156Z,62.22
2023-03-21T00:50:24.027Z,62.10
2023-03-21T00:50:59.477Z,62.21
2023-03-21T00:51:34.240Z,62.00
2023-03-21T00:52:17.182Z,62.20
2023-03-21T00:52:56.681Z,62.20
2023-03-21T00:53:32.834Z,62.31
2023-03-21T00:54:05.847Z,62.22
2023-03-21T00:54:38.272Z,62.23
2023-03-21T00:55:16.302Z,62.31
2023-03-21T00:55:48.957Z,62.12
2023-03-21T00:56:21.904Z,61.91
2023-03-21T00:56:57.543Z,62.16
2023-03-21T00:57:38.620Z,61.92
2023-03-21T00:58:11.845Z,62.04
2023-03-21T00:58:46.585Z,62.24
2023-03-21T00:59:18.743Z,62.21
2023-03-21T00:59:50.907Z,62.24
2023-03-21T01:00:25.834Z,62.32
2023-03-21T01:00:58.017Z,62.51
2023-03-21T01:01:32.422Z,62.15
2023-03-21T01:02:07.629Z,61.83
2023-03-21T01:03:14.148Z,62.45
2023-03-21T01:04:04.881Z,62.18
2023-03-21T01:04:37.061Z,62.25
2023-03-21T01:05:12.086Z,62.29
2023-03-21T01:06:07.365Z,62.22
2023-03-21T01:06:40.905Z,62.26
2023-03-21T01:07:13.037Z,61.95
2023-03-21T01:07:47.705Z,62.28
2023-03-21T01:08:26.848Z,62.23
2023-03-21T01:09:03.208Z,62.33
2023-03-21T01:09:38.028Z,62.01
2023-03-21T01:10:11.563Z,62.11
2023-03-21T01:10:46.256Z,62.37
2023-03-21T01:11:20.668Z,62.17
2023-03-21T01:11:56.522Z,62.30
2023-03-21T01:12:28.813Z,62.14
2023-03-21T01:13:01.306Z,62.15
2023-03-21T01:13:44.015Z,61.98
2023-03-21T01:14:23.855Z,62.51
2023-03-21T01:14:58.895Z,62.41
2023-03-21T01:15:32.074Z,62.33
2023-03-21T01:16:06.143Z,62.48
2023-03-21T01:16:41.722Z,62.29
2023-03-21T01:17:14.081Z,62.00
2023-03-21T01:17:48.788Z,62.33
2023-03-21T01:18:25.079Z,62.61
2023-03-21T01:18:59.813Z,62.44
2023-03-21T01:19:48.734Z,62.71
2023-03-21T01:20:23.755Z,62.60
2023-03-21T01:21:00.969Z,62.56
2023-03-21T01:21:33.697Z,62.35
2023-03-21T01:22:05.859Z,62.39
2023-03-21T01:22:40.537Z,62.65
2023-03-21T01:23:15.018Z,62.65
2023-03-21T01:23:47.348Z,62.66
2023-03-21T01:24:22.241Z,62.43
2023-03-21T01:25:00.621Z,62.65
2023-03-21T01:25:35.662Z,62.61
2023-03-21T01:26:11.040Z,62.60
2023-03-21T01:26:43.277Z,62.75
2023-03-21T01:27:15.949Z,62.98
2023-03-21T01:27:51.530Z,62.68
2023-03-21T01:28:26.637Z,62.50
2023-03-21T01:29:01.688Z,62.72
2023-03-21T01:29:33.852Z,62.81
2023-03-21T01:30:19.155Z,62.71
2023-03-21T01:30:53.293Z,62.88
2023-03-21T01:31:28.419Z,62.61
2023-03-21T01:32:00.604Z,62.61
2023-03-21T01:32:34.165Z,63.05
2023-03-21T01:33:09.070Z,62.90
2023-03-21T01:33:44.090Z,62.92
2023-03-21T01:34:16.308Z,63.00
2023-03-21T01:34:48.788Z,63.23
2023-03-21T01:35:23.970Z,63.22
2023-03-21T01:36:10.233Z,62.97
2023-03-21T01:36:47.988Z,63.12
2023-03-21T01:37:26.647Z,63.21
2023-03-21T01:37:59.784Z,63.02
2023-03-21T01:38:32.081Z,63.15
2023-03-21T01:39:08.737Z,62.92
2023-03-21T01:39:40.964Z,63.06
2023-03-21T01:40:17.468Z,62.65
2023-03-21T01:40:53.231Z,62.59
2023-03-21T01:41:47.753Z,62.76
2023-03-21T01:42:44.019Z,62.84
2023-03-21T01:43:25.848Z,62.98
2023-03-21T01:43:59.674Z,62.98
2023-03-21T01:44:56.785Z,63.13
2023-03-21T01:45:59.949Z,62.87
2023-03-21T01:47:10.544Z,63.32
2023-03-21T01:47:53.301Z,62.96
2023-03-21T01:48:32.071Z,63.24
2023-03-21T01:49:11.797Z,62.99
2023-03-21T01:49:48.012Z,63.14
2023-03-21T01:50:24.421Z,63.28
2023-03-21T01:51:22.758Z,63.32
2023-03-21T01:52:12.773Z,63.62
2023-03-21T01:52:50.606Z,63.36
2023-03-21T01:53:33.781Z,63.48
2023-03-21T01:54:11.679Z,63.51
2023-03-21T01:54:47.811Z,63.52
2023-03-21T01:55:20.258Z,63.49
2023-03-21T01:56:03.188Z,63.31
2023-03-21T01:57:01.901Z,63.20
2023-03-21T01:57:51.925Z,63.26
2023-03-21T01:58:32.075Z,63.65
2023-03-21T01:59:17.558Z,63.37
2023-03-21T02:00:12.729Z,63.44
2023-03-21T02:00:52.306Z,63.38
2023-03-21T02:01:38.427Z,63.13
2023-03-21T02:02:18.023Z,63.15
2023-03-21T02:03:15.233Z,63.47
2023-03-21T02:04:09.306Z,63.34
2023-03-21T02:04:58.620Z,63.08
2023-03-21T02:05:41.261Z,62.86
2023-03-21T02:06:22.056Z,62.92
2023-03-21T02:07:06.121Z,62.92
2023-03-21T02:07:46.688Z,63.26
2023-03-21T02:08:30.514Z,63.00
2023-03-21T02:09:23.409Z,63.07
2023-03-21T02:09:56.474Z,62.95
2023-03-21T02:10:32.231Z,63.05
2023-03-21T02:11:10.015Z,62.97
2023-03-21T02:11:47.606Z,63.21
2023-03-21T02:12:23.727Z,62.93
2023-03-21T02:13:09.655Z,62.72
2023-03-21T02:13:45.431Z,63.16
2023-03-21T02:14:29.410Z,63.11
2023-03-21T02:15:16.259Z,63.41
2023-03-21T02:16:18.218Z,63.09
2023-03-21T02:17:02.057Z,62.92
2023-03-21T02:17:42.607Z,63.26
2023-03-21T02:18:27.201Z,63.27
2023-03-21T02:19:29.584Z,63.09
2023-03-21T02:20:37.243Z,63.16
2023-03-21T02:21:43.089Z,63.27
2023-03-21T02:22:38.172Z,63.39
2023-03-21T02:23:34.176Z,63.50
2023-03-21T02:24:30.346Z,63.17
2023-03-21T02:25:41.543Z,63.48
2023-03-21T02:27:01.534Z,63.22
2023-03-21T02:27:44.739Z,63.38
2023-03-21T02:28:27.987Z,63.71
2023-03-21T02:29:09.070Z,63.43
2023-03-21T02:30:31.932Z,63.70
2023-03-21T02:31:27.256Z,63.25
2023-03-21T02:32:22.552Z,63.49
2023-03-21T02:33:34.798Z,63.89
2023-03-21T02:34:54.151Z,63.81
2023-03-21T02:35:51.892Z,63.58
2023-03-21T02:36:38.134Z,63.92
2023-03-21T02:37:36.570Z,63.95
2023-03-21T02:38:18.470Z,64.12
2023-03-21T02:38:59.967Z,64.26
2023-03-21T02:39:40.435Z,64.19
2023-03-21T02:40:23.464Z,64.13
2023-03-21T02:41:17.946Z,64.56
2023-03-21T02:41:56.463Z,64.50
2023-03-21T02:43:00.074Z,64.58
2023-03-21T02:43:43.078Z,64.71
2023-03-21T02:44:23.919Z,64.38
2023-03-21T02:45:01.854Z,64.87
2023-03-21T02:45:40.362Z,64.53
2023-03-21T02:46:17.689Z,64.63
2023-03-21T02:47:05.477Z,64.28
2023-03-21T02:47:43.883Z,64.53
2023-03-21T02:48:29.338Z,64.28
2023-03-21T02:49:12.808Z,64.77
2023-03-21T02:49:49.726Z,64.76
2023-03-21T02:50:27.619Z,64.72
2023-03-21T02:51:05.117Z,64.91
2023-03-21T02:51:40.716Z,65.19
2023-03-21T02:52:35.435Z,65.22
2023-03-21T02:53:16.164Z,65.09
2023-03-21T02:54:13.042Z,65.19
2023-03-21T02:54:49.053Z,65.47
2023-03-21T02:55:29.735Z,65.47
2023-03-21T02:56:10.822Z,65.31
2023-03-21T02:56:50.871Z,65.72
2023-03-21T02:57:33.790Z,65.61
2023-03-21T02:58:13.735Z,65.29
2023-03-21T02:58:56.920Z,65.61
2023-03-21T02:59:30.552Z,65.65
2023-03-21T03:00:16.731Z,65.52
2023-03-21T03:00:50.886Z,65.64
2023-03-21T03:01:34.419Z,65.89
2023-03-21T03:02:10.167Z,65.66
2023-03-21T03:02:42.354Z,65.64
2023-03-21T03:03:27.979Z,65.96
2023-03-21T03:04:06.983Z,65.97
2023-03-21T03:04:39.229Z,65.84
2023-03-21T03:05:21.203Z,65.68
2023-03-21T03:06:01.469Z,65.92
2023-03-21T03:06:47.342Z,66.14
2023-03-21T03:07:36.978Z,66.22
2023-03-21T03:08:41.233Z,66.26
2023-03-21T03:09:31.772Z,66.11
2023-03-21T03:10:22.652Z,66.42
2023-03-21T03:11:10.574Z,66.48
2023-03-21T03:11:47.458Z,66.58
2023-03-21T03:12:30.082Z,66.15
2023-03-21T03:13:16.442Z,66.32
2023-03-21T03:14:21.043Z,66.72
2023-03-21T03:15:08.771Z,66.39
2023-03-21T03:15:54.076Z,66.61
2023-03-21T03:16:37.002Z,66.73
2023-03-21T03:17:22.148Z,66.62
2023-03-21T03:18:03.483Z,66.72
2023-03-21T03:18:48.013Z,66.85
2023-03-21T03:19:31.215Z,66.92
2023-03-21T03:20:22.028Z,66.83
2023-03-21T03:21:07.239Z,66.71
2023-03-21T03:21:44.858Z,66.79
2023-03-21T03:22:26.961Z,66.75
2023-03-21T03:23:16.028Z,67.16
2023-03-21T03:23:55.306Z,67.19
2023-03-21T03:24:31.103Z,67.29
2023-03-21T03:25:19.757Z,67.05
2023-03-21T03:26:06.114Z,66.85
2023-03-21T03:26:41.477Z,67.08
2023-03-21T03:27:17.862Z,67.30
2023-03-21T03:27:55.736Z,67.31
2023-03-21T03:28:33.662Z,67.15
2023-03-21T03:29:12.388Z,67.23
2023-03-21T03:29:49.127Z,67.35
2023-03-21T03:30:39.285Z,67.68
2023-03-21T03:31:22.259Z,67.52
2023-03-21T03:32:02.501Z,67.43
2023-03-21T03:32:44.929Z,67.35
2023-03-21T03:33:23.602Z,67.63
2023-03-21T03:33:58.866Z,67.58
2023-03-21T03:34:39.667Z,67.79
2023-03-21T03:35:20.296Z,67.73
2023-03-21T03:36:04.927Z,67.70
2023-03-21T03:36:44.690Z,67.92
2023-03-21T03:37:26.503Z,67.59
2023-03-21T03:38:06.319Z,67.54
2023-03-21T03:41:23.857Z,67.89
2023-03-21T03:42:21.831Z,67.43
2023-03-21T03:43:37.084Z,67.59
2023-03-21T03:44:09.343Z,68.17
2023-03-21T03:44:45.589Z,67.95
2023-03-21T03:45:22.968Z,67.73
2023-03-21T03:46:00.360Z,67.95
2023-03-21T03:46:38.899Z,67.73
2023-03-21T03:47:29.880Z,67.97
2023-03-21T03:48:09.067Z,68.11
2023-03-21T03:48:52.567Z,68.13
2023-03-21T03:49:28.854Z,68.14
2023-03-21T03:50:04.933Z,68.34
2023-03-21T03:50:47.387Z,68.20
2023-03-21T03:51:26.280Z,68.05
2023-03-21T03:52:26.218Z,68.50
2023-03-21T03:53:19.212Z,68.24
2023-03-21T03:53:57.647Z,68.30
2023-03-21T03:54:37.251Z,68.46
2023-03-21T03:55:17.762Z,68.12
2023-03-21T03:55:55.032Z,68.31
2023-03-21T03:56:31.887Z,68.12
2023-03-21T03:57:07.304Z,68.15
2023-03-21T03:57:40.981Z,68.38
2023-03-21T03:58:22.889Z,68.27
2023-03-21T03:59:00.308Z,68.27
2023-03-21T03:59:50.316Z,68.33
2023-03-21T04:00:36.104Z,68.43
2023-03-21T04:01:08.614Z,68.47
2023-03-21T04:01:41.613Z,68.61
2023-03-21T04:02:17.547Z,68.56
2023-03-21T04:02:49.733Z,68.74
2023-03-21T04:03:26.417Z,68.58
2023-03-21T04:04:12.620Z,68.49
2023-03-21T04:04:47.170Z,68.38
2023-03-21T04:05:21.510Z,68.68
2023-03-21T04:05:56.630Z,68.63
2023-03-21T04:06:29.134Z,68.27
2023-03-21T04:07:03.570Z,68.41
2023-03-21T04:07:38.436Z,68.37
2023-03-21T04:08:11.109Z,68.08
2023-03-21T04:08:47.717Z,68.16
2023-03-21T04:09:31.500Z,68.01
2023-03-21T04:10:13.273Z,68.24
2023-03-21T04:10:49.693Z,68.01
2023-03-21T04:11:22.387Z,68.01
2023-03-21T04:12:00.890Z,67.97
2023-03-21T04:12:35.660Z,67.66
2023-03-21T04:13:43.443Z,68.05
2023-03-21T04:14:20.769Z,67.72
2023-03-21T04:14:53.342Z,67.78
2023-03-21T04:15:27.175Z,67.95
2023-03-21T04:16:08.941Z,67.62
2023-03-21T04:16:41.233Z,67.64
2023-03-21T04:17:13.372Z,67.59
2023-03-21T04:17:48.370Z,67.40
2023-03-21T04:18:23.142Z,67.42
2023-03-21T04:18:55.592Z,67.29
2023-03-21T04:19:31.398Z,67.71
2023-03-21T04:20:12.025Z,67.58
2023-03-21T04:20:45.415Z,67.48
2023-03-21T04:21:21.722Z,67.44
2023-03-21T04:21:54.004Z,67.54
2023-03-21T04:22:27.184Z,67.37
2023-03-21T04:23:02.111Z,67.40
2023-03-21T04:23:36.018Z,67.05
2023-03-21T04:24:08.779Z,67.36
2023-03-21T04:24:44.911Z,67.22
2023-03-21T04:25:30.638Z,67.04
2023-03-21T04:26:09.567Z,67.52
2023-03-21T04:26:46.570Z,67.25
2023-03-21T04:27:48.598Z,67.17
2023-03-21T04:28:39.926Z,67.32
2023-03-21T04:29:33.079Z,67.18
2023-03-21T04:30:07.530Z,67.05
2023-03-21T04:31:01.434Z,67.19
2023-03-21T04:31:41.724Z,67.13
2023-03-21T04:32:17.846Z,67.22
2023-03-21T04:33:01.181Z,66.85
2023-03-21T04:33:39.021Z,67.01
2023-03-21T04:34:12.771Z,66.77
2023-03-21T04:34:50.263Z,67.06
2023-03-21T04:35:26.936Z,67.13
2023-03-21T04:36:00.131Z,66.88
2023-03-21T04:36:39.415Z,66.75
2023-03-21T04:37:15.994Z,66.68
2023-03-21T04:37:48.217Z,66.60
2023-03-21T04:38:20.923Z,66.96
2023-03-21T04:38:57.346Z,66.82
2023-03-21T04:39:29.713Z,67.00
2023-03-21T04:40:06.269Z,66.84
2023-03-21T04:40:41.057Z,66.69
2023-03-21T04:41:13.374Z,66.55
2023-03-21T04:41:46.738Z,66.92
2023-03-21T04:42:21.756Z,66.71
2023-03-21T04:42:56.910Z,66.73
2023-03-21T04:43:29.547Z,66.60
2023-03-21T04:44:04.731Z,66.85
2023-03-21T04:44:37.377Z,66.78
2023-03-21T04:45:10.915Z,66.89
2023-03-21T04:45:47.007Z,66.67
2023-03-21T04:46:19.225Z,66.62
2023-03-21T04:46:55.027Z,66.98
2023-03-21T04:47:28.450Z,66.81
2023-03-21T04:48:04.491Z,66.85
2023-03-21T04:48:37.990Z,66.78
2023-03-21T04:49:10.568Z,66.87
2023-03-21T04:49:45.959Z,66.68
2023-03-21T04:50:18.180Z,66.82
2023-03-21T04:50:51.105Z,66.63
2023-03-21T04:51:25.915Z,66.58
2023-03-21T04:51:58.098Z,67.00
2023-03-21T04:52:30.234Z,66.83
2023-03-21T04:53:02.371Z,66.79
2023-03-21T04:53:38.520Z,66.64
2023-03-21T04:54:46.971Z,66.79
2023-03-21T04:55:21.807Z,66.70
2023-03-21T04:55:55.675Z,66.80
2023-03-21T04:56:32.475Z,67.16
2023-03-21T04:57:08.154Z,66.78
2023-03-21T04:57:40.452Z,67.08
2023-03-21T04:58:18.100Z,66.83
2023-03-21T04:58:51.440Z,66.93
2023-03-21T04:59:24.735Z,67.08
2023-03-21T05:00:00.531Z,67.09
2023-03-21T05:00:37.545Z,67.15
2023-03-21T05:01:10.908Z,66.99
2023-03-21T05:01:46.462Z,67.62
2023-03-21T05:04:09.847Z,67.48
2023-03-21T05:04:42.269Z,67.74
2023-03-21T05:05:14.539Z,67.83
2023-03-21T05:05:49.616Z,67.59
2023-03-21T05:06:24.049Z,67.77
2023-03-21T05:06:56.323Z,67.57
2023-03-21T05:07:32.842Z,67.78
2023-03-21T05:08:06.245Z,67.48
2023-03-21T05:08:38.558Z,67.49
2023-03-21T05:09:13.895Z,67.57
2023-03-21T05:09:46.400Z,67.25
2023-03-21T05:10:19.188Z,67.60
2023-03-21T05:10:54.001Z,67.88
2023-03-21T05:11:27.294Z,67.56
2023-03-21T05:12:02.136Z,67.67
2023-03-21T05:12:35.809Z,67.84
2023-03-21T05:13:08.012Z,67.73
2023-03-21T05:13:45.469Z,67.76
2023-03-21T05:14:19.739Z,67.56
2023-03-21T05:14:52.128Z,67.56
2023-03-21T05:15:27.079Z,67.58
2023-03-21T05:15:59.326Z,67.34
2023-03-21T05:16:31.879Z,67.75
2023-03-21T05:17:07.265Z,67.22
2023-03-21T05:17:42.826Z,67.28
2023-03-21T05:18:15.766Z,67.47
2023-03-21T05:19:07.413Z,67.37
2023-03-21T05:19:44.918Z,67.20
2023-03-21T05:20:17.868Z,67.56
2023-03-21T05:20:54.634Z,67.50
2023-03-21T05:21:29.677Z,67.61
2023-03-21T05:22:07.398Z,67.25
2023-03-21T05:22:40.689Z,67.31
2023-03-21T05:23:18.661Z,67.27
2023-03-21T05:23:54.719Z,67.55
2023-03-21T05:24:26.956Z,67.35
2023-03-21T05:25:04.124Z,67.32
2023-03-21T05:25:47.492Z,67.57
2023-03-21T05:26:24.372Z,67.39
2023-03-21T05:27:14.245Z,67.43
2023-03-21T05:27:54.312Z,67.75
2023-03-21T05:28:36.889Z,67.54
2023-03-21T05:29:12.278Z,67.71
2023-03-21T05:29:44.883Z,67.61
2023-03-21T05:30:21.313Z,67.81
2023-03-21T05:30:55.766Z,67.67
2023-03-21T05:31:30.776Z,67.63
2023-03-21T05:32:14.384Z,67.44
2023-03-21T05:32:46.794Z,67.65
2023-03-21T05:33:21.945Z,67.52
2023-03-21T05:33:54.429Z,67.74
2023-03-21T05:34:27.209Z,67.38
2023-03-21T05:35:02.640Z,67.73
2023-03-21T05:35:35.008Z,67.47
2023-03-21T05:36:11.480Z,67.37
2023-03-21T05:36:46.898Z,67.32
2023-03-21T05:37:19.069Z,67.70
2023-03-21T05:37:54.349Z,67.48
2023-03-21T05:38:31.242Z,67.66
2023-03-21T05:39:04.216Z,67.61
2023-03-21T05:39:38.764Z,67.18
2023-03-21T05:40:22.335Z,67.27
2023-03-21T05:40:54.711Z,67.18
2023-03-21T05:41:26.900Z,67.58
2023-03-21T05:42:01.756Z,67.30
2023-03-21T05:42:34.057Z,67.26
2023-03-21T05:43:15.048Z,67.19
2023-03-21T05:43:50.552Z,67.33
2023-03-21T05:44:25.506Z,67.53
2023-03-21T05:45:00.862Z,67.17
2023-03-21T05:45:35.904Z,67.55
2023-03-21T05:46:09.914Z,67.44
2023-03-21T05:46:46.777Z,67.77
2023-03-21T05:47:19.472Z,67.82
2023-03-21T05:47:52.929Z,67.49
2023-03-21T05:48:31.309Z,67.64
2023-03-21T05:49:24.577Z,67.39
2023-03-21T05:50:03.532Z,67.68
2023-03-21T05:50:38.858Z,67.60
2023-03-21T05:51:17.781Z,67.53
2023-03-21T05:51:54.047Z,67.63
2023-03-21T05:52:26.859Z,67.76
2023-03-21T05:52:59.089Z,67.46
2023-03-21T05:53:34.071Z,67.24
2023-03-21T05:54:06.788Z,67.65
2023-03-21T05:54:42.052Z,67.32
2023-03-21T05:55:14.600Z,67.61
2023-03-21T05:55:47.756Z,67.68
2023-03-21T05:56:36.605Z,67.55
2023-03-21T05:57:11.538Z,67.32
2023-03-21T05:58:18.456Z,67.48
2023-03-21T05:58:54.706Z,67.41
2023-03-21T05:59:31.012Z,67.53
2023-03-21T06:00:06.489Z,67.59
2023-03-21T06:00:47.636Z,67.89
2023-03-21T06:01:31.296Z,67.67
2023-03-21T06:02:13.081Z,67.46
2023-03-21T06:02:45.877Z,67.54
2023-03-21T06:03:53.033Z,67.81
2023-03-21T06:04:29.688Z,67.97
2023-03-21T06:05:01.994Z,67.73
2023-03-21T06:05:37.127Z,67.67
2023-03-21T06:06:16.263Z,67.59
2023-03-21T06:07:02.717Z,67.75
2023-03-21T06:07:35.657Z,67.76
2023-03-21T06:08:08.027Z,67.32
2023-03-21T06:08:43.002Z,67.70
2023-03-21T06:09:15.204Z,67.47
2023-03-21T06:09:54.722Z,67.67
2023-03-21T06:10:26.954Z,67.74
2023-03-21T06:10:59.034Z,67.58
2023-03-21T06:11:36.154Z,67.67
2023-03-21T06:12:34.574Z,67.71
2023-03-21T06:13:16.589Z,67.44
2023-03-21T06:13:48.769Z,67.85
2023-03-21T06:14:24.387Z,67.45
2023-03-21T06:15:21.611Z,67.45
2023-03-21T06:16:03.539Z,67.33
2023-03-21T06:16:38.439Z,67.46
2023-03-21T06:17:13.177Z,67.30
2023-03-21T06:17:53.438Z,67.22
2023-03-21T06:18:26.380Z,67.59
2023-03-21T06:19:13.296Z,67.60
2023-03-21T06:20:11.673Z,67.31
2023-03-21T06:20:54.531Z,67.41
2023-03-21T06:21:26.985Z,67.64
2023-03-21T06:21:59.218Z,67.32
2023-03-21T06:22:34.221Z,67.32
2023-03-21T06:23:07.760Z,67.12
2023-03-21T06:23:40.025Z,67.49
2023-03-21T06:24:14.876Z,67.51
2023-03-21T06:24:48.401Z,67.54
2023-03-21T06:25:23.402Z,67.23
2023-03-21T06:25:58.246Z,67.52
2023-03-21T06:26:31.873Z,67.46
2023-03-21T06:27:04.474Z,67.12
2023-03-21T06:27:53.743Z,67.25
2023-03-21T06:28:26.924Z,67.29
2023-03-21T06:28:59.111Z,67.54
2023-03-21T06:29:33.996Z,67.52
2023-03-21T06:30:08.795Z,67.18
2023-03-21T06:30:53.492Z,67.01
2023-03-21T06:31:29.559Z,67.19
2023-03-21T06:32:10.709Z,67.23
2023-03-21T06:32:43.140Z,66.86
2023-03-21T06:33:19.278Z,67.04
2023-03-21T06:33:54.443Z,67.14
2023-03-21T06:34:26.862Z,66.77
2023-03-21T06:34:58.969Z,66.90
2023-03-21T06:35:33.955Z,67.07
2023-03-21T06:36:07.078Z,67.00
2023-03-21T06:36:39.240Z,67.04
2023-03-21T06:37:14.253Z,66.99
2023-03-21T06:37:49.459Z,66.80
2023-03-21T06:38:26.210Z,66.76
2023-03-21T06:38:58.877Z,66.85
2023-03-21T06:39:33.973Z,66.71
2023-03-21T06:40:09.788Z,66.84
2023-03-21T06:40:42.013Z,67.11
2023-03-21T06:41:18.456Z,66.63
2023-03-21T06:42:00.429Z,66.84
2023-03-21T06:42:32.836Z,66.75
2023-03-21T06:43:14.544Z,66.73
2023-03-21T06:43:46.837Z,66.72
2023-03-21T06:44:22.181Z,66.69
2023-03-21T06:45:02.341Z,66.87
2023-03-21T06:45:34.826Z,66.47
2023-03-21T06:46:12.192Z,66.74
2023-03-21T06:46:44.811Z,66.86
2023-03-21T06:47:18.422Z,66.67
2023-03-21T06:47:54.578Z,66.52
2023-03-21T06:48:37.690Z,66.57
2023-03-21T06:49:12.620Z,66.58
2023-03-21T06:49:44.796Z,66.51
2023-03-21T06:50:19.141Z,66.75
2023-03-21T06:50:55.321Z,66.30
2023-03-21T06:51:29.164Z,66.12
2023-03-21T06:52:13.644Z,66.30
2023-03-21T06:52:46.654Z,66.43
2023-03-21T06:53:21.305Z,66.21
2023-03-21T06:54:18.046Z,66.49
2023-03-21T06:54:55.043Z,66.49
2023-03-21T06:55:30.675Z,66.27
2023-03-21T06:56:05.539Z,66.63
2023-03-21T06:56:38.510Z,66.25
2023-03-21T06:57:13.698Z,66.32
2023-03-21T06:57:46.492Z,66.35
2023-03-21T06:58:19.678Z,66.11
2023-03-21T06:58:54.623Z,66.54
2023-03-21T06:59:49.253Z,66.07
2023-03-21T07:00:29.445Z,66.06
2023-03-21T07:01:03.280Z,66.48
2023-03-21T07:01:43.262Z,66.08
2023-03-21T07:02:16.071Z,66.12
2023-03-21T07:02:54.504Z,66.25
2023-03-21T07:03:32.999Z,66.13
2023-03-21T07:04:06.457Z,65.94
2023-03-21T07:04:41.257Z,66.22
2023-03-21T07:05:18.995Z,66.34
2023-03-21T07:05:53.813Z,66.35
2023-03-21T07:06:27.406Z,66.27
2023-03-21T07:07:02.890Z,66.25
2023-03-21T07:07:35.068Z,66.14
2023-03-21T07:08:08.294Z,66.19
2023-03-21T07:08:43.847Z,65.87
2023-03-21T07:09:17.992Z,65.88
2023-03-21T07:09:50.544Z,65.86
2023-03-21T07:10:25.354Z,66.02
2023-03-21T07:11:07.721Z,65.87
2023-03-21T07:11:42.433Z,66.07
2023-03-21T07:12:14.566Z,66.12
2023-03-21T07:13:04.741Z,66.28
2023-03-21T07:13:50.454Z,66.02
2023-03-21T07:14:24.026Z,66.15
2023-03-21T07:14:58.777Z,66.14
2023-03-21T07:15:31.545Z,66.08
2023-03-21T07:16:04.013Z,65.80
2023-03-21T07:16:41.177Z,65.84
2023-03-21T07:17:16.094Z,65.71
2023-03-21T07:17:48.249Z,65.47
2023-03-21T07:18:23.211Z,65.69
2023-03-21T07:18:56.291Z,65.45
2023-03-21T07:19:28.519Z,65.88
2023-03-21T07:20:05.292Z,65.72
2023-03-21T07:20:38.206Z,65.92
2023-03-21T07:21:13.427Z,65.92
2023-03-21T07:21:45.873Z,65.77
2023-03-21T07:22:19.658Z,65.78
2023-03-21T07:22:54.384Z,65.60
2023-03-21T07:23:28.278Z,65.57
2023-03-21T07:24:00.499Z,65.46
2023-03-21T07:24:35.448Z,65.38
2023-03-21T07:25:09.072Z,65.32
2023-03-21T07:25:44.210Z,65.33
2023-03-21T07:26:19.305Z,65.63
2023-03-21T07:26:51.557Z,65.47
2023-03-21T07:27:23.670Z,65.51
2023-03-21T07:27:58.624Z,65.37
2023-03-21T07:28:31.505Z,65.37
2023-03-21T07:29:06.584Z,64.81
2023-03-21T07:29:38.872Z,65.08
2023-03-21T07:30:13.017Z,64.96
2023-03-21T07:30:48.770Z,64.89
2023-03-21T07:31:21.044Z,64.88
2023-03-21T07:31:54.366Z,64.58
2023-03-21T07:32:35.564Z,64.97
2023-03-21T07:33:09.656Z,64.86
2023-03-21T07:33:43.712Z,64.57
2023-03-21T07:34:19.044Z,64.53
2023-03-21T07:34:51.384Z,64.83
2023-03-21T07:35:23.634Z,64.64
2023-03-21T07:35:58.738Z,64.72
2023-03-21T07:36:30.852Z,64.92
2023-03-21T07:37:07.141Z,64.76
2023-03-21T07:37:39.926Z,64.73
2023-03-21T07:38:14.777Z,64.55
2023-03-21T07:38:49.658Z,64.25
2023-03-21T07:39:26.491Z,64.36
2023-03-21T07:39:58.862Z,64.37
2023-03-21T07:40:34.231Z,64.32
2023-03-21T07:41:07.141Z,64.08
2023-03-21T07:41:45.746Z,64.36
2023-03-21T07:42:37.183Z,64.23
2023-03-21T07:43:11.957Z,64.00
2023-03-21T07:43:47.660Z,63.85
2023-03-21T07:44:22.351Z,63.90
2023-03-21T07:44:59.629Z,64.08
2023-03-21T07:45:38.553Z,64.02
2023-03-21T07:46:13.356Z,63.93
2023-03-21T07:46:48.307Z,63.95
2023-03-21T07:47:21.657Z,64.11
2023-03-21T07:47:59.198Z,64.03
2023-03-21T07:48:31.594Z,64.13
2023-03-21T07:49:14.058Z,63.99
2023-03-21T07:49:46.824Z,63.73
2023-03-21T07:50:19.507Z,63.71
2023-03-21T07:50:54.912Z,63.49
2023-03-21T07:51:27.225Z,63.54
2023-03-21T07:52:00.077Z,63.56
2023-03-21T07:52:35.322Z,63.63
2023-03-21T07:53:07.835Z,63.37
2023-03-21T07:53:43.925Z,63.67
2023-03-21T07:54:19.375Z,63.37
2023-03-21T07:54:51.483Z,63.27
2023-03-21T07:55:26.324Z,63.23
2023-03-21T07:55:58.439Z,63.33
2023-03-21T07:56:33.275Z,62.95
2023-03-21T07:57:05.461Z,62.69
2023-03-21T07:57:37.705Z,62.75
2023-03-21T07:58:12.869Z,62.92
2023-03-21T07:58:45.027Z,63.28
2023-03-21T07:59:17.450Z,62.92
2023-03-21T07:59:52.165Z,63.07
2023-03-21T08:00:24.912Z,63.14
2023-03-21T08:01:02.274Z,62.61
2023-03-21T08:01:34.387Z,62.81
2023-03-21T08:02:09.200Z,62.77
2023-03-21T08:02:41.430Z,62.64
2023-03-21T08:03:17.081Z,62.53
2023-03-21T08:03:53.765Z,62.67
2023-03-21T08:04:26.276Z,62.39
2023-03-21T08:04:58.804Z,62.43
2023-03-21T08:05:37.461Z,62.73
2023-03-21T08:06:10.927Z,62.51
2023-03-21T08:06:45.736Z,62.41
2023-03-21T08:07:17.871Z,62.30
2023-03-21T08:07:50.331Z,62.44
2023-03-21T08:08:25.084Z,62.27
2023-03-21T08:08:57.183Z,62.13
2023-03-21T08:09:31.072Z,61.77
2023-03-21T08:10:06.175Z,61.98
2023-03-21T08:10:38.441Z,62.23
2023-03-21T08:11:14.462Z,61.82
2023-03-21T08:11:46.613Z,62.30
2023-03-21T08:12:18.801Z,62.12
2023-03-21T08:12:53.777Z,62.57
2023-03-21T08:13:26.282Z,62.51
2023-03-21T08:13:58.451Z,62.12
2023-03-21T08:14:33.358Z,61.91
2023-03-21T08:15:06.537Z,62.29
2023-03-21T08:15:42.554Z,61.97
2023-03-21T08:16:15.054Z,61.86
2023-03-21T08:16:49.806Z,62.06
2023-03-21T08:17:21.933Z,62.11